sensor_id;sensor_type;location;lat;lon;timestamp;pressure;altitude;pressure_sealevel;temperature;humidity
54918;BME280;40818;50.562;7.454;2022-07-29T05:11:38;97586.41;;;16.36;66.52
54918;BME280;40818;50.562;7.454;2022-07-29T05:16:42;97599.88;;;16.70;66.21
54918;BME280;40818;50.562;7.454;2022-07-29T05:21:45;97598.28;;;17.25;67.06
54918;BME280;40818;50.562;7.454;2022-07-29T05:26:51;97598.50;;;17.42;64.91
54918;BME280;40818;50.562;7.454;2022-07-29T05:31:55;97600.38;;;17.67;64.63
54918;BME280;40818;50.562;7.454;2022-07-29T05:36:58;97617.94;;;17.95;64.94
54918;BME280;40818;50.562;7.454;2022-07-29T05:42:07;97613.22;;;18.16;64.51
54918;BME280;40818;50.562;7.454;2022-07-29T05:47:11;97626.50;;;18.41;63.54
54918;BME280;40818;50.562;7.454;2022-07-29T05:52:14;97633.63;;;18.67;62.78
54918;BME280;40818;50.562;7.454;2022-07-29T05:57:22;97639.97;;;18.82;65.14
54918;BME280;40818;50.562;7.454;2022-07-29T06:02:26;97647.63;;;18.75;68.16
54918;BME280;40818;50.562;7.454;2022-07-29T06:07:29;97655.88;;;18.81;67.67
54918;BME280;40818;50.562;7.454;2022-07-29T06:12:35;97656.88;;;18.80;68.71
54918;BME280;40818;50.562;7.454;2022-07-29T06:17:39;97664.38;;;18.74;68.07
54918;BME280;40818;50.562;7.454;2022-07-29T06:22:42;97670.81;;;18.98;65.67
54918;BME280;40818;50.562;7.454;2022-07-29T06:27:48;97678.53;;;19.26;63.75
54918;BME280;40818;50.562;7.454;2022-07-29T06:32:52;97669.06;;;19.41;64.42
54918;BME280;40818;50.562;7.454;2022-07-29T06:37:55;97677.34;;;19.55;63.98
54918;BME280;40818;50.562;7.454;2022-07-29T06:43:01;97673.81;;;19.72;63.19
54918;BME280;40818;50.562;7.454;2022-07-29T06:48:05;97678.13;;;19.90;60.69
54918;BME280;40818;50.562;7.454;2022-07-29T06:53:09;97682.16;;;20.19;58.70
54918;BME280;40818;50.562;7.454;2022-07-29T06:58:15;97679.88;;;20.40;58.53
54918;BME280;40818;50.562;7.454;2022-07-29T07:03:29;97678.22;;;20.72;56.55
54918;BME280;40818;50.562;7.454;2022-07-29T07:08:32;97681.16;;;21.98;54.72
54918;BME280;40818;50.562;7.454;2022-07-29T07:13:38;97683.59;;;23.07;50.23
54918;BME280;40818;50.562;7.454;2022-07-29T07:18:42;97685.53;;;24.25;46.83
54918;BME280;40818;50.562;7.454;2022-07-29T07:23:45;97685.13;;;24.99;45.19
54918;BME280;40818;50.562;7.454;2022-07-29T07:28:51;97672.94;;;25.95;43.35
54918;BME280;40818;50.562;7.454;2022-07-29T07:33:55;97676.16;;;26.92;40.74
54918;BME280;40818;50.562;7.454;2022-07-29T07:38:58;97675.94;;;27.80;39.02
54918;BME280;40818;50.562;7.454;2022-07-29T07:44:05;97669.25;;;28.41;35.76
54918;BME280;40818;50.562;7.454;2022-07-29T07:49:09;97669.91;;;29.12;35.81
54918;BME280;40818;50.562;7.454;2022-07-29T07:54:12;97673.88;;;29.77;35.45
54918;BME280;40818;50.562;7.454;2022-07-29T07:59:18;97669.81;;;30.23;32.55
54918;BME280;40818;50.562;7.454;2022-07-29T08:04:22;97670.31;;;29.83;33.03
54918;BME280;40818;50.562;7.454;2022-07-29T08:09:26;97671.66;;;29.18;34.63
54918;BME280;40818;50.562;7.454;2022-07-29T08:14:33;97668.19;;;29.92;34.76
54918;BME280;40818;50.562;7.454;2022-07-29T08:19:36;97664.19;;;30.55;31.62
54918;BME280;40818;50.562;7.454;2022-07-29T08:24:40;97664.69;;;31.11;32.20
54918;BME280;40818;50.562;7.454;2022-07-29T08:29:55;97672.53;;;31.65;31.25
54918;BME280;40818;50.562;7.454;2022-07-29T08:34:58;97674.56;;;30.63;29.74
54918;BME280;40818;50.562;7.454;2022-07-29T08:40:03;97677.38;;;29.28;32.42
54918;BME280;40818;50.562;7.454;2022-07-29T08:45:10;97679.03;;;28.22;32.74
54918;BME280;40818;50.562;7.454;2022-07-29T08:50:13;97672.38;;;27.47;33.87
54918;BME280;40818;50.562;7.454;2022-07-29T08:55:17;97681.66;;;27.38;35.88
54918;BME280;40818;50.562;7.454;2022-07-29T09:00:25;97675.22;;;28.04;36.58
54918;BME280;40818;50.562;7.454;2022-07-29T09:05:29;97669.16;;;29.05;35.32
54918;BME280;40818;50.562;7.454;2022-07-29T09:10:34;97672.25;;;29.02;34.29
54918;BME280;40818;50.562;7.454;2022-07-29T09:15:41;97668.94;;;28.24;34.47
54918;BME280;40818;50.562;7.454;2022-07-29T09:20:51;97668.13;;;27.19;35.54
54918;BME280;40818;50.562;7.454;2022-07-29T09:26:07;97654.75;;;27.91;35.63
54918;BME280;40818;50.562;7.454;2022-07-29T09:31:14;97660.63;;;29.15;34.59
54918;BME280;40818;50.562;7.454;2022-07-29T09:36:17;97658.09;;;29.94;33.08
54918;BME280;40818;50.562;7.454;2022-07-29T09:41:21;97657.69;;;30.33;32.19
54918;BME280;40818;50.562;7.454;2022-07-29T09:46:27;97645.69;;;30.54;30.45
54918;BME280;40818;50.562;7.454;2022-07-29T09:51:30;97642.94;;;29.69;31.25
54918;BME280;40818;50.562;7.454;2022-07-29T09:56:41;97643.47;;;29.59;32.15
54918;BME280;40818;50.562;7.454;2022-07-29T10:01:48;97651.72;;;30.49;32.40
54918;BME280;40818;50.562;7.454;2022-07-29T10:06:58;97642.34;;;31.46;31.50
54918;BME280;40818;50.562;7.454;2022-07-29T10:12:04;97643.88;;;31.83;30.07
54918;BME280;40818;50.562;7.454;2022-07-29T10:17:10;97641.06;;;31.49;30.73
54918;BME280;40818;50.562;7.454;2022-07-29T10:22:14;97641.41;;;32.22;30.07
54918;BME280;40818;50.562;7.454;2022-07-29T10:27:17;97638.56;;;32.80;29.12
54918;BME280;40818;50.562;7.454;2022-07-29T10:32:35;97632.66;;;32.15;28.60
54918;BME280;40818;50.562;7.454;2022-07-29T10:37:56;97634.31;;;32.33;29.57
54918;BME280;40818;50.562;7.454;2022-07-29T10:43:09;97632.88;;;32.13;29.70
54918;BME280;40818;50.562;7.454;2022-07-29T10:48:21;97637.00;;;32.33;29.46
54918;BME280;40818;50.562;7.454;2022-07-29T10:53:30;97641.56;;;32.04;28.88
54918;BME280;40818;50.562;7.454;2022-07-29T10:59:26;97638.06;;;31.34;29.23
54918;BME280;40818;50.562;7.454;2022-07-29T11:04:58;97638.31;;;31.20;29.92
54918;BME280;40818;50.562;7.454;2022-07-29T11:10:24;97641.06;;;30.30;29.78
54918;BME280;40818;50.562;7.454;2022-07-29T11:15:53;97635.44;;;29.22;32.22
54918;BME280;40818;50.562;7.454;2022-07-29T11:20:57;97626.06;;;29.69;32.50
54918;BME280;40818;50.562;7.454;2022-07-29T11:26:15;97621.47;;;30.06;32.24
54918;BME280;40818;50.562;7.454;2022-07-29T11:31:35;97635.91;;;31.07;31.50
54918;BME280;40818;50.562;7.454;2022-07-29T11:42:40;97626.75;;;31.31;29.92
54918;BME280;40818;50.562;7.454;2022-07-29T11:47:51;97620.94;;;31.35;29.59
54918;BME280;40818;50.562;7.454;2022-07-29T11:52:58;97622.28;;;31.08;30.07
54918;BME280;40818;50.562;7.454;2022-07-29T11:58:02;97621.09;;;31.69;29.75
54918;BME280;40818;50.562;7.454;2022-07-29T12:03:09;97621.69;;;31.71;29.92
54918;BME280;40818;50.562;7.454;2022-07-29T12:08:16;97621.84;;;32.44;28.67
54918;BME280;40818;50.562;7.454;2022-07-29T12:13:22;97626.03;;;33.08;27.94
54918;BME280;40818;50.562;7.454;2022-07-29T12:18:28;97611.91;;;33.84;28.06
54918;BME280;40818;50.562;7.454;2022-07-29T12:23:32;97619.13;;;33.78;26.74
54918;BME280;40818;50.562;7.454;2022-07-29T12:28:37;97610.63;;;33.92;27.58
54918;BME280;40818;50.562;7.454;2022-07-29T12:33:51;97613.03;;;33.88;27.39
54918;BME280;40818;50.562;7.454;2022-07-29T12:38:56;97609.03;;;33.96;27.10
54918;BME280;40818;50.562;7.454;2022-07-29T12:43:59;97616.19;;;31.01;29.23
54918;BME280;40818;50.562;7.454;2022-07-29T12:49:06;97609.13;;;30.83;30.44
54918;BME280;40818;50.562;7.454;2022-07-29T12:54:11;97604.97;;;31.28;30.35
54918;BME280;40818;50.562;7.454;2022-07-29T12:59:17;97592.53;;;32.08;28.69
54918;BME280;40818;50.562;7.454;2022-07-29T13:04:28;97598.75;;;32.43;28.61
54918;BME280;40818;50.562;7.454;2022-07-29T13:09:40;97585.19;;;32.04;29.22
54918;BME280;40818;50.562;7.454;2022-07-29T13:14:45;97583.28;;;32.16;28.24
54918;BME280;40818;50.562;7.454;2022-07-29T13:19:53;97585.53;;;32.07;30.12
54918;BME280;40818;50.562;7.454;2022-07-29T13:24:58;97591.41;;;31.58;30.05
54918;BME280;40818;50.562;7.454;2022-07-29T13:30:04;97587.03;;;32.32;28.91
54918;BME280;40818;50.562;7.454;2022-07-29T13:35:10;97583.66;;;32.08;29.17
54918;BME280;40818;50.562;7.454;2022-07-29T13:40:14;97591.53;;;31.40;30.02
54918;BME280;40818;50.562;7.454;2022-07-29T13:45:17;97587.66;;;30.95;30.59
54918;BME280;40818;50.562;7.454;2022-07-29T13:50:24;97586.25;;;30.92;31.33
54918;BME280;40818;50.562;7.454;2022-07-29T13:55:27;97596.16;;;30.56;32.36
54918;BME280;40818;50.562;7.454;2022-07-29T14:00:31;97598.06;;;30.44;33.41
54918;BME280;40818;50.562;7.454;2022-07-29T14:05:37;97600.78;;;30.25;32.77
54918;BME280;40818;50.562;7.454;2022-07-29T14:10:40;97598.38;;;29.93;32.69
54918;BME280;40818;50.562;7.454;2022-07-29T14:15:44;97603.63;;;29.88;33.34
54918;BME280;40818;50.562;7.454;2022-07-29T14:20:49;97619.44;;;29.71;33.16
54918;BME280;40818;50.562;7.454;2022-07-29T14:25:53;97617.72;;;29.77;32.53
54918;BME280;40818;50.562;7.454;2022-07-29T14:30:57;97624.25;;;29.14;33.44
54918;BME280;40818;50.562;7.454;2022-07-29T14:36:03;97636.13;;;28.74;34.52
54918;BME280;40818;50.562;7.454;2022-07-29T14:41:07;97630.97;;;28.79;34.01
54918;BME280;40818;50.562;7.454;2022-07-29T14:46:11;97629.03;;;28.36;34.61
54918;BME280;40818;50.562;7.454;2022-07-29T14:51:17;97631.22;;;28.20;34.88
54918;BME280;40818;50.562;7.454;2022-07-29T14:56:20;97628.81;;;28.12;34.89
54918;BME280;40818;50.562;7.454;2022-07-29T15:01:24;97636.75;;;28.19;35.54
54918;BME280;40818;50.562;7.454;2022-07-29T15:06:30;97627.59;;;28.08;36.00
54918;BME280;40818;50.562;7.454;2022-07-29T15:11:34;97629.53;;;28.26;36.41
54918;BME280;40818;50.562;7.454;2022-07-29T15:16:38;97626.63;;;28.27;35.74
54918;BME280;40818;50.562;7.454;2022-07-29T15:21:45;97633.25;;;28.18;36.08
54918;BME280;40818;50.562;7.454;2022-07-29T15:26:49;97623.91;;;28.09;35.98
54918;BME280;40818;50.562;7.454;2022-07-29T15:31:52;97621.06;;;28.04;35.96
54918;BME280;40818;50.562;7.454;2022-07-29T15:36:58;97614.91;;;27.58;35.90
54918;BME280;40818;50.562;7.454;2022-07-29T15:42:02;97623.81;;;27.45;36.32
54918;BME280;40818;50.562;7.454;2022-07-29T15:47:06;97617.25;;;27.34;36.55
54918;BME280;40818;50.562;7.454;2022-07-29T15:52:12;97614.03;;;27.12;36.54
54918;BME280;40818;50.562;7.454;2022-07-29T15:57:15;97618.59;;;26.98;36.91
54918;BME280;40818;50.562;7.454;2022-07-29T16:02:19;97617.13;;;27.02;36.85
54918;BME280;40818;50.562;7.454;2022-07-29T16:07:25;97615.75;;;26.86;37.68
54918;BME280;40818;50.562;7.454;2022-07-29T16:12:28;97622.31;;;26.77;36.71
54918;BME280;40818;50.562;7.454;2022-07-29T16:17:32;97621.88;;;26.40;37.28
54918;BME280;40818;50.562;7.454;2022-07-29T16:22:38;97620.44;;;26.44;38.50
54918;BME280;40818;50.562;7.454;2022-07-29T16:27:41;97626.38;;;26.33;38.48
54918;BME280;40818;50.562;7.454;2022-07-29T16:32:45;97627.63;;;26.30;38.66
54918;BME280;40818;50.562;7.454;2022-07-29T16:37:51;97639.03;;;26.04;39.34
54918;BME280;40818;50.562;7.454;2022-07-29T16:42:54;97645.66;;;25.66;40.26
54918;BME280;40818;50.562;7.454;2022-07-29T16:47:57;97656.50;;;25.58;40.23
54918;BME280;40818;50.562;7.454;2022-07-29T16:53:04;97652.75;;;25.52;40.40
54918;BME280;40818;50.562;7.454;2022-07-29T16:58:08;97651.97;;;25.17;41.10
54918;BME280;40818;50.562;7.454;2022-07-29T17:03:11;97661.72;;;24.81;41.91
54918;BME280;40818;50.562;7.454;2022-07-29T17:08:17;97665.56;;;24.72;42.00
54918;BME280;40818;50.562;7.454;2022-07-29T17:13:21;97681.22;;;24.67;42.21
54918;BME280;40818;50.562;7.454;2022-07-29T17:18:24;97679.75;;;24.21;43.32
54918;BME280;40818;50.562;7.454;2022-07-29T17:23:30;97675.28;;;24.00;43.83
54918;BME280;40818;50.562;7.454;2022-07-29T17:28:34;97688.09;;;23.81;44.06
54918;BME280;40818;50.562;7.454;2022-07-29T17:33:37;97683.53;;;23.75;43.37
54918;BME280;40818;50.562;7.454;2022-07-29T17:38:43;97697.16;;;23.72;43.61
54918;BME280;40818;50.562;7.454;2022-07-29T17:43:46;97707.22;;;23.47;44.06
54918;BME280;40818;50.562;7.454;2022-07-29T17:48:50;97712.38;;;23.10;44.96
54918;BME280;40818;50.562;7.454;2022-07-29T17:53:56;97723.94;;;22.94;45.31
54918;BME280;40818;50.562;7.454;2022-07-29T17:59:00;97721.97;;;22.73;46.30
54918;BME280;40818;50.562;7.454;2022-07-29T18:04:06;97720.28;;;22.57;46.15
54918;BME280;40818;50.562;7.454;2022-07-29T18:09:12;97729.84;;;22.35;46.89
54918;BME280;40818;50.562;7.454;2022-07-29T18:14:15;97733.34;;;22.27;46.63
54918;BME280;40818;50.562;7.454;2022-07-29T18:19:19;97735.56;;;22.15;46.89
54918;BME280;40818;50.562;7.454;2022-07-29T18:24:25;97736.63;;;22.06;47.43
54918;BME280;40818;50.562;7.454;2022-07-29T18:29:28;97740.44;;;22.04;47.40
54918;BME280;40818;50.562;7.454;2022-07-29T18:34:32;97737.97;;;22.02;47.19
54918;BME280;40818;50.562;7.454;2022-07-29T18:39:38;97743.63;;;21.91;46.97
54918;BME280;40818;50.562;7.454;2022-07-29T18:44:41;97747.00;;;21.68;46.38
54918;BME280;40818;50.562;7.454;2022-07-29T18:49:44;97758.88;;;21.72;46.37
54918;BME280;40818;50.562;7.454;2022-07-29T18:54:50;97754.94;;;21.52;46.95
54918;BME280;40818;50.562;7.454;2022-07-29T18:59:54;97750.38;;;21.45;47.17
54918;BME280;40818;50.562;7.454;2022-07-29T19:04:57;97750.88;;;21.41;47.82
54918;BME280;40818;50.562;7.454;2022-07-29T19:10:04;97760.94;;;21.37;47.54
54918;BME280;40818;50.562;7.454;2022-07-29T19:15:09;97769.38;;;21.41;47.46
54918;BME280;40818;50.562;7.454;2022-07-29T19:20:12;97763.13;;;21.34;47.55
54918;BME280;40818;50.562;7.454;2022-07-29T19:25:18;97778.47;;;21.13;47.78
54918;BME280;40818;50.562;7.454;2022-07-29T19:30:22;97783.91;;;20.95;48.19
54918;BME280;40818;50.562;7.454;2022-07-29T19:35:26;97776.50;;;20.83;48.71
54918;BME280;40818;50.562;7.454;2022-07-29T19:40:36;97784.03;;;20.61;49.27
54918;BME280;40818;50.562;7.454;2022-07-29T19:45:39;97797.19;;;20.53;49.03
54918;BME280;40818;50.562;7.454;2022-07-29T19:50:43;97805.25;;;20.43;49.21
54918;BME280;40818;50.562;7.454;2022-07-29T19:55:49;97797.66;;;20.32;49.91
54918;BME280;40818;50.562;7.454;2022-07-29T20:00:52;97810.09;;;20.05;50.84
54918;BME280;40818;50.562;7.454;2022-07-29T20:05:56;97811.91;;;20.04;51.15
54918;BME280;40818;50.562;7.454;2022-07-29T20:11:02;97821.72;;;19.94;51.35
54918;BME280;40818;50.562;7.454;2022-07-29T20:16:05;97826.53;;;19.99;51.49
54918;BME280;40818;50.562;7.454;2022-07-29T20:21:09;97823.03;;;19.90;52.11
54918;BME280;40818;50.562;7.454;2022-07-29T20:26:16;97829.50;;;19.77;52.63
54918;BME280;40818;50.562;7.454;2022-07-29T20:31:19;97834.13;;;19.75;52.37
54918;BME280;40818;50.562;7.454;2022-07-29T20:36:22;97833.09;;;19.68;53.00
54918;BME280;40818;50.562;7.454;2022-07-29T20:41:29;97838.00;;;19.63;53.23
54918;BME280;40818;50.562;7.454;2022-07-29T20:46:33;97839.13;;;19.60;52.77
54918;BME280;40818;50.562;7.454;2022-07-29T20:51:38;97845.25;;;19.61;52.65
54918;BME280;40818;50.562;7.454;2022-07-29T20:56:44;97847.81;;;19.53;52.99
54918;BME280;40818;50.562;7.454;2022-07-29T21:01:47;97843.16;;;19.47;52.90
54918;BME280;40818;50.562;7.454;2022-07-29T21:06:51;97854.53;;;19.47;53.23
54918;BME280;40818;50.562;7.454;2022-07-29T21:11:57;97854.00;;;19.43;53.03
54918;BME280;40818;50.562;7.454;2022-07-29T21:17:01;97856.25;;;19.38;53.38
54918;BME280;40818;50.562;7.454;2022-07-29T21:22:06;97860.47;;;19.31;53.47
54918;BME280;40818;50.562;7.454;2022-07-29T21:27:12;97864.41;;;19.27;53.93
54918;BME280;40818;50.562;7.454;2022-07-29T21:32:28;97861.38;;;19.22;53.69
54918;BME280;40818;50.562;7.454;2022-07-29T21:37:31;97874.19;;;19.17;53.98
54918;BME280;40818;50.562;7.454;2022-07-29T21:42:37;97876.97;;;19.15;54.75
54918;BME280;40818;50.562;7.454;2022-07-29T21:47:41;97871.66;;;19.07;54.62
54918;BME280;40818;50.562;7.454;2022-07-29T21:52:44;97866.81;;;19.02;54.58
54918;BME280;40818;50.562;7.454;2022-07-29T21:57:51;97869.38;;;18.94;55.44
54918;BME280;40818;50.562;7.454;2022-07-29T22:02:54;97873.44;;;18.88;55.55
54918;BME280;40818;50.562;7.454;2022-07-29T22:07:58;97879.78;;;18.86;55.79
54918;BME280;40818;50.562;7.454;2022-07-29T22:13:04;97875.66;;;18.83;56.16
54918;BME280;40818;50.562;7.454;2022-07-29T22:18:07;97874.00;;;18.82;55.59
54918;BME280;40818;50.562;7.454;2022-07-29T22:23:10;97866.56;;;18.77;56.21
54918;BME280;40818;50.562;7.454;2022-07-29T22:28:16;97871.84;;;18.77;56.34
54918;BME280;40818;50.562;7.454;2022-07-29T22:33:20;97877.75;;;18.80;56.31
54918;BME280;40818;50.562;7.454;2022-07-29T22:38:23;97880.38;;;18.80;56.24
54918;BME280;40818;50.562;7.454;2022-07-29T22:43:29;97875.28;;;18.78;56.44
54918;BME280;40818;50.562;7.454;2022-07-29T22:48:33;97879.56;;;18.79;56.58
54918;BME280;40818;50.562;7.454;2022-07-29T22:53:36;97883.84;;;18.80;56.90
54918;BME280;40818;50.562;7.454;2022-07-29T22:58:42;97878.38;;;18.73;57.85
54918;BME280;40818;50.562;7.454;2022-07-29T23:03:45;97874.47;;;18.77;56.64
54918;BME280;40818;50.562;7.454;2022-07-29T23:08:49;97873.25;;;18.72;57.73
54918;BME280;40818;50.562;7.454;2022-07-29T23:13:55;97873.38;;;18.70;57.81
54918;BME280;40818;50.562;7.454;2022-07-29T23:18:58;97870.47;;;18.73;57.35
54918;BME280;40818;50.562;7.454;2022-07-29T23:24:02;97866.56;;;18.77;57.38
54918;BME280;40818;50.562;7.454;2022-07-29T23:29:08;97868.91;;;18.81;57.81
54918;BME280;40818;50.562;7.454;2022-07-29T23:34:11;97867.25;;;18.80;57.43
54918;BME280;40818;50.562;7.454;2022-07-29T23:39:15;97860.47;;;18.77;57.76
54918;BME280;40818;50.562;7.454;2022-07-29T23:44:21;97859.81;;;18.75;57.95
54918;BME280;40818;50.562;7.454;2022-07-29T23:49:24;97852.34;;;18.70;58.02
